sensor_id;sensor_type;location;lat;lon;timestamp;P1;durP1;ratioP1;P2;durP2;ratioP2
56720;SDS011;53183;47.412;18.884;2023-05-07T00:02:04;4.95;;;3.78;;
56720;SDS011;53183;47.412;18.884;2023-05-07T00:04:31;8.18;;;3.75;;
56720;SDS011;53183;47.412;18.884;2023-05-07T00:07:03;6.62;;;3.50;;
56720;SDS011;53183;47.412;18.884;2023-05-07T00:09:31;6.10;;;3.55;;
56720;SDS011;53183;47.412;18.884;2023-05-07T00:11:58;5.47;;;3.58;;
56720;SDS011;53183;47.412;18.884;2023-05-07T00:14:25;6.18;;;3.78;;
56720;SDS011;53183;47.412;18.884;2023-05-07T00:16:53;4.65;;;4.03;;
56720;SDS011;53183;47.412;18.884;2023-05-07T00:19:20;6.28;;;3.42;;
56720;SDS011;53183;47.412;18.884;2023-05-07T00:21:47;5.50;;;3.95;;
56720;SDS011;53183;47.412;18.884;2023-05-07T00:24:14;5.18;;;3.58;;
56720;SDS011;53183;47.412;18.884;2023-05-07T00:26:42;4.35;;;3.62;;
56720;SDS011;53183;47.412;18.884;2023-05-07T00:29:09;5.60;;;3.50;;
56720;SDS011;53183;47.412;18.884;2023-05-07T00:31:36;3.75;;;3.22;;
56720;SDS011;53183;47.412;18.884;2023-05-07T00:34:03;5.28;;;3.58;;
56720;SDS011;53183;47.412;18.884;2023-05-07T00:36:31;4.43;;;3.22;;
56720;SDS011;53183;47.412;18.884;2023-05-07T00:38:59;5.80;;;3.17;;
56720;SDS011;53183;47.412;18.884;2023-05-07T00:41:29;6.30;;;3.35;;
56720;SDS011;53183;47.412;18.884;2023-05-07T00:43:57;6.43;;;3.35;;
56720;SDS011;53183;47.412;18.884;2023-05-07T00:46:24;5.70;;;3.75;;
56720;SDS011;53183;47.412;18.884;2023-05-07T00:48:53;6.12;;;4.05;;
56720;SDS011;53183;47.412;18.884;2023-05-07T00:51:20;4.82;;;3.65;;
56720;SDS011;53183;47.412;18.884;2023-05-07T00:53:48;4.85;;;3.35;;
56720;SDS011;53183;47.412;18.884;2023-05-07T00:56:15;6.68;;;3.75;;
56720;SDS011;53183;47.412;18.884;2023-05-07T00:58:42;5.57;;;3.87;;
56720;SDS011;53183;47.412;18.884;2023-05-07T01:01:10;5.07;;;3.85;;
56720;SDS011;53183;47.412;18.884;2023-05-07T01:03:37;4.87;;;3.35;;
56720;SDS011;53183;47.412;18.884;2023-05-07T01:06:05;6.53;;;3.90;;
56720;SDS011;53183;47.412;18.884;2023-05-07T01:08:35;8.02;;;3.58;;
56720;SDS011;53183;47.412;18.884;2023-05-07T01:11:03;8.07;;;4.20;;
56720;SDS011;53183;47.412;18.884;2023-05-07T01:13:30;5.55;;;3.72;;
56720;SDS011;53183;47.412;18.884;2023-05-07T01:15:58;4.78;;;3.75;;
56720;SDS011;53183;47.412;18.884;2023-05-07T01:18:25;6.85;;;3.90;;
56720;SDS011;53183;47.412;18.884;2023-05-07T01:20:54;4.95;;;3.83;;
56720;SDS011;53183;47.412;18.884;2023-05-07T01:23:25;5.95;;;3.60;;
56720;SDS011;53183;47.412;18.884;2023-05-07T01:25:54;6.07;;;3.65;;
56720;SDS011;53183;47.412;18.884;2023-05-07T01:28:22;5.40;;;3.75;;
56720;SDS011;53183;47.412;18.884;2023-05-07T01:30:51;6.22;;;3.92;;
56720;SDS011;53183;47.412;18.884;2023-05-07T01:33:22;8.38;;;4.72;;
56720;SDS011;53183;47.412;18.884;2023-05-07T01:35:52;9.38;;;4.78;;
56720;SDS011;53183;47.412;18.884;2023-05-07T01:38:21;7.20;;;4.53;;
56720;SDS011;53183;47.412;18.884;2023-05-07T01:40:49;7.53;;;5.47;;
56720;SDS011;53183;47.412;18.884;2023-05-07T01:43:17;7.53;;;5.57;;
56720;SDS011;53183;47.412;18.884;2023-05-07T01:45:44;9.52;;;6.10;;
56720;SDS011;53183;47.412;18.884;2023-05-07T01:48:12;9.52;;;6.40;;
56720;SDS011;53183;47.412;18.884;2023-05-07T01:50:41;10.38;;;7.20;;
56720;SDS011;53183;47.412;18.884;2023-05-07T01:53:09;9.07;;;5.82;;
56720;SDS011;53183;47.412;18.884;2023-05-07T01:55:37;7.55;;;5.35;;
56720;SDS011;53183;47.412;18.884;2023-05-07T01:58:04;10.30;;;5.65;;
56720;SDS011;53183;47.412;18.884;2023-05-07T02:00:32;7.55;;;5.32;;
56720;SDS011;53183;47.412;18.884;2023-05-07T02:02:59;8.23;;;5.53;;
56720;SDS011;53183;47.412;18.884;2023-05-07T02:05:27;7.03;;;5.10;;
56720;SDS011;53183;47.412;18.884;2023-05-07T02:07:55;13.07;;;6.18;;
56720;SDS011;53183;47.412;18.884;2023-05-07T02:10:23;9.73;;;5.22;;
56720;SDS011;53183;47.412;18.884;2023-05-07T02:12:50;8.55;;;6.18;;
56720;SDS011;53183;47.412;18.884;2023-05-07T02:15:18;12.85;;;6.03;;
56720;SDS011;53183;47.412;18.884;2023-05-07T02:18:01;12.18;;;6.12;;
56720;SDS011;53183;47.412;18.884;2023-05-07T02:20:33;10.27;;;5.57;;
56720;SDS011;53183;47.412;18.884;2023-05-07T02:23:02;10.25;;;6.18;;
56720;SDS011;53183;47.412;18.884;2023-05-07T02:25:29;9.52;;;6.57;;
56720;SDS011;53183;47.412;18.884;2023-05-07T02:27:57;9.68;;;5.97;;
56720;SDS011;53183;47.412;18.884;2023-05-07T02:30:25;8.43;;;5.80;;
56720;SDS011;53183;47.412;18.884;2023-05-07T02:32:53;11.77;;;5.62;;
56720;SDS011;53183;47.412;18.884;2023-05-07T02:35:21;8.10;;;6.05;;
56720;SDS011;53183;47.412;18.884;2023-05-07T02:37:48;8.27;;;6.12;;
56720;SDS011;53183;47.412;18.884;2023-05-07T02:40:15;13.73;;;6.30;;
56720;SDS011;53183;47.412;18.884;2023-05-07T02:42:42;10.68;;;6.00;;
56720;SDS011;53183;47.412;18.884;2023-05-07T02:45:10;9.30;;;6.68;;
56720;SDS011;53183;47.412;18.884;2023-05-07T02:47:38;9.13;;;6.43;;
56720;SDS011;53183;47.412;18.884;2023-05-07T02:50:06;10.43;;;6.87;;
56720;SDS011;53183;47.412;18.884;2023-05-07T02:52:34;8.65;;;6.30;;
56720;SDS011;53183;47.412;18.884;2023-05-07T02:55:01;8.98;;;5.80;;
56720;SDS011;53183;47.412;18.884;2023-05-07T02:57:29;8.30;;;5.28;;
56720;SDS011;53183;47.412;18.884;2023-05-07T02:59:57;8.65;;;5.12;;
56720;SDS011;53183;47.412;18.884;2023-05-07T03:02:27;7.30;;;5.32;;
56720;SDS011;53183;47.412;18.884;2023-05-07T03:04:55;7.85;;;4.80;;
56720;SDS011;53183;47.412;18.884;2023-05-07T03:07:22;6.10;;;4.50;;
56720;SDS011;53183;47.412;18.884;2023-05-07T03:09:49;6.57;;;4.32;;
56720;SDS011;53183;47.412;18.884;2023-05-07T03:12:17;5.90;;;4.20;;
56720;SDS011;53183;47.412;18.884;2023-05-07T03:14:44;10.52;;;4.65;;
56720;SDS011;53183;47.412;18.884;2023-05-07T03:17:11;8.70;;;5.18;;
56720;SDS011;53183;47.412;18.884;2023-05-07T03:19:38;6.35;;;4.72;;
56720;SDS011;53183;47.412;18.884;2023-05-07T03:22:06;6.72;;;5.75;;
56720;SDS011;53183;47.412;18.884;2023-05-07T03:24:33;6.10;;;4.47;;
56720;SDS011;53183;47.412;18.884;2023-05-07T03:27:00;6.55;;;4.78;;
56720;SDS011;53183;47.412;18.884;2023-05-07T03:29:28;8.32;;;4.75;;
56720;SDS011;53183;47.412;18.884;2023-05-07T03:31:56;7.97;;;4.78;;
56720;SDS011;53183;47.412;18.884;2023-05-07T03:34:23;6.40;;;4.37;;
56720;SDS011;53183;47.412;18.884;2023-05-07T03:36:50;8.30;;;4.50;;
56720;SDS011;53183;47.412;18.884;2023-05-07T03:39:18;9.35;;;5.37;;
56720;SDS011;53183;47.412;18.884;2023-05-07T03:41:45;7.15;;;5.25;;
56720;SDS011;53183;47.412;18.884;2023-05-07T03:44:13;10.02;;;4.72;;
56720;SDS011;53183;47.412;18.884;2023-05-07T03:46:40;6.80;;;4.50;;
56720;SDS011;53183;47.412;18.884;2023-05-07T03:49:09;7.97;;;5.12;;
56720;SDS011;53183;47.412;18.884;2023-05-07T03:51:36;7.50;;;4.97;;
56720;SDS011;53183;47.412;18.884;2023-05-07T03:54:04;6.15;;;4.18;;
56720;SDS011;53183;47.412;18.884;2023-05-07T03:56:31;13.18;;;5.00;;
56720;SDS011;53183;47.412;18.884;2023-05-07T03:58:59;6.55;;;4.72;;
56720;SDS011;53183;47.412;18.884;2023-05-07T04:01:27;4.97;;;3.83;;
56720;SDS011;53183;47.412;18.884;2023-05-07T04:03:55;7.85;;;4.43;;
56720;SDS011;53183;47.412;18.884;2023-05-07T04:06:23;7.20;;;4.20;;
56720;SDS011;53183;47.412;18.884;2023-05-07T04:08:51;9.38;;;5.00;;
56720;SDS011;53183;47.412;18.884;2023-05-07T04:11:18;7.78;;;5.18;;
56720;SDS011;53183;47.412;18.884;2023-05-07T04:13:46;6.97;;;5.03;;
56720;SDS011;53183;47.412;18.884;2023-05-07T04:16:15;6.55;;;4.43;;
56720;SDS011;53183;47.412;18.884;2023-05-07T04:18:42;5.47;;;4.37;;
56720;SDS011;53183;47.412;18.884;2023-05-07T04:21:16;6.20;;;4.20;;
56720;SDS011;53183;47.412;18.884;2023-05-07T04:23:46;9.80;;;5.07;;
56720;SDS011;53183;47.412;18.884;2023-05-07T04:26:14;7.30;;;5.03;;
56720;SDS011;53183;47.412;18.884;2023-05-07T04:28:42;7.87;;;5.15;;
56720;SDS011;53183;47.412;18.884;2023-05-07T04:31:10;9.32;;;4.60;;
56720;SDS011;53183;47.412;18.884;2023-05-07T04:33:38;7.18;;;4.50;;
56720;SDS011;53183;47.412;18.884;2023-05-07T04:36:05;5.93;;;4.20;;
56720;SDS011;53183;47.412;18.884;2023-05-07T04:38:34;6.37;;;4.18;;
56720;SDS011;53183;47.412;18.884;2023-05-07T04:41:05;5.80;;;4.00;;
56720;SDS011;53183;47.412;18.884;2023-05-07T04:43:34;7.45;;;4.90;;
56720;SDS011;53183;47.412;18.884;2023-05-07T04:46:01;7.60;;;4.70;;
56720;SDS011;53183;47.412;18.884;2023-05-07T04:48:28;7.00;;;3.55;;
56720;SDS011;53183;47.412;18.884;2023-05-07T04:50:57;5.00;;;4.15;;
56720;SDS011;53183;47.412;18.884;2023-05-07T04:53:24;4.97;;;3.45;;
56720;SDS011;53183;47.412;18.884;2023-05-07T04:55:55;4.78;;;3.42;;
56720;SDS011;53183;47.412;18.884;2023-05-07T04:58:24;7.30;;;3.12;;
56720;SDS011;53183;47.412;18.884;2023-05-07T05:00:52;8.00;;;3.83;;
56720;SDS011;53183;47.412;18.884;2023-05-07T05:03:19;4.60;;;3.35;;
56720;SDS011;53183;47.412;18.884;2023-05-07T05:05:48;4.30;;;3.47;;
56720;SDS011;53183;47.412;18.884;2023-05-07T05:08:16;5.25;;;3.28;;
56720;SDS011;53183;47.412;18.884;2023-05-07T05:10:44;4.82;;;3.45;;
56720;SDS011;53183;47.412;18.884;2023-05-07T05:13:11;7.93;;;3.25;;
56720;SDS011;53183;47.412;18.884;2023-05-07T05:15:40;4.93;;;3.33;;
56720;SDS011;53183;47.412;18.884;2023-05-07T05:18:07;3.10;;;2.80;;
56720;SDS011;53183;47.412;18.884;2023-05-07T05:20:35;6.68;;;3.55;;
56720;SDS011;53183;47.412;18.884;2023-05-07T05:23:02;10.77;;;3.62;;
56720;SDS011;53183;47.412;18.884;2023-05-07T05:25:30;6.32;;;3.60;;
56720;SDS011;53183;47.412;18.884;2023-05-07T05:27:58;4.55;;;3.45;;
56720;SDS011;53183;47.412;18.884;2023-05-07T05:30:25;5.55;;;3.85;;
56720;SDS011;53183;47.412;18.884;2023-05-07T05:32:52;8.43;;;2.95;;
56720;SDS011;53183;47.412;18.884;2023-05-07T05:35:20;5.78;;;3.12;;
56720;SDS011;53183;47.412;18.884;2023-05-07T05:37:47;5.00;;;3.03;;
56720;SDS011;53183;47.412;18.884;2023-05-07T05:40:15;4.87;;;2.97;;
56720;SDS011;53183;47.412;18.884;2023-05-07T05:42:43;2.45;;;2.00;;
56720;SDS011;53183;47.412;18.884;2023-05-07T05:45:11;6.87;;;2.85;;
56720;SDS011;53183;47.412;18.884;2023-05-07T05:47:38;4.70;;;2.83;;
56720;SDS011;53183;47.412;18.884;2023-05-07T05:50:06;4.43;;;3.12;;
56720;SDS011;53183;47.412;18.884;2023-05-07T05:52:34;4.90;;;2.95;;
56720;SDS011;53183;47.412;18.884;2023-05-07T05:55:02;5.87;;;3.65;;
56720;SDS011;53183;47.412;18.884;2023-05-07T05:57:30;5.72;;;3.20;;
56720;SDS011;53183;47.412;18.884;2023-05-07T05:59:57;5.47;;;4.00;;
56720;SDS011;53183;47.412;18.884;2023-05-07T06:02:25;4.07;;;3.33;;
56720;SDS011;53183;47.412;18.884;2023-05-07T06:04:52;5.28;;;4.37;;
56720;SDS011;53183;47.412;18.884;2023-05-07T06:07:20;6.20;;;4.32;;
56720;SDS011;53183;47.412;18.884;2023-05-07T06:09:48;8.65;;;4.00;;
56720;SDS011;53183;47.412;18.884;2023-05-07T06:12:16;9.98;;;3.95;;
56720;SDS011;53183;47.412;18.884;2023-05-07T06:14:43;5.05;;;3.70;;
56720;SDS011;53183;47.412;18.884;2023-05-07T06:17:11;5.65;;;3.72;;
56720;SDS011;53183;47.412;18.884;2023-05-07T06:19:38;7.55;;;3.08;;
56720;SDS011;53183;47.412;18.884;2023-05-07T06:22:06;2.45;;;2.17;;
56720;SDS011;53183;47.412;18.884;2023-05-07T06:24:33;3.40;;;2.78;;
56720;SDS011;53183;47.412;18.884;2023-05-07T06:27:00;2.90;;;2.33;;
56720;SDS011;53183;47.412;18.884;2023-05-07T06:29:28;5.12;;;2.47;;
56720;SDS011;53183;47.412;18.884;2023-05-07T06:32:08;3.15;;;2.50;;
56720;SDS011;53183;47.412;18.884;2023-05-07T06:34:39;2.53;;;2.30;;
56720;SDS011;53183;47.412;18.884;2023-05-07T06:37:07;2.83;;;1.85;;
56720;SDS011;53183;47.412;18.884;2023-05-07T06:39:35;3.60;;;1.98;;
56720;SDS011;53183;47.412;18.884;2023-05-07T06:42:03;3.25;;;2.40;;
56720;SDS011;53183;47.412;18.884;2023-05-07T06:44:31;3.03;;;2.33;;
56720;SDS011;53183;47.412;18.884;2023-05-07T06:46:58;4.72;;;2.25;;
56720;SDS011;53183;47.412;18.884;2023-05-07T06:49:27;4.40;;;1.85;;
56720;SDS011;53183;47.412;18.884;2023-05-07T06:51:54;4.32;;;1.70;;
56720;SDS011;53183;47.412;18.884;2023-05-07T06:54:22;5.20;;;1.33;;
56720;SDS011;53183;47.412;18.884;2023-05-07T06:56:51;1.98;;;1.40;;
56720;SDS011;53183;47.412;18.884;2023-05-07T06:59:18;4.32;;;1.27;;
56720;SDS011;53183;47.412;18.884;2023-05-07T07:01:46;2.75;;;1.87;;
56720;SDS011;53183;47.412;18.884;2023-05-07T07:04:14;2.83;;;2.58;;
56720;SDS011;53183;47.412;18.884;2023-05-07T07:06:42;5.03;;;3.53;;
56720;SDS011;53183;47.412;18.884;2023-05-07T07:09:09;4.43;;;3.10;;
56720;SDS011;53183;47.412;18.884;2023-05-07T07:11:37;4.07;;;3.50;;
56720;SDS011;53183;47.412;18.884;2023-05-07T07:14:04;6.07;;;2.70;;
56720;SDS011;53183;47.412;18.884;2023-05-07T07:16:33;5.45;;;3.72;;
56720;SDS011;53183;47.412;18.884;2023-05-07T07:19:01;5.50;;;4.35;;
56720;SDS011;53183;47.412;18.884;2023-05-07T07:21:28;21.33;;;4.50;;
56720;SDS011;53183;47.412;18.884;2023-05-07T07:23:56;5.85;;;4.90;;
56720;SDS011;53183;47.412;18.884;2023-05-07T07:26:24;9.07;;;5.72;;
56720;SDS011;53183;47.412;18.884;2023-05-07T07:28:52;7.40;;;5.62;;
56720;SDS011;53183;47.412;18.884;2023-05-07T07:31:19;11.25;;;6.22;;
56720;SDS011;53183;47.412;18.884;2023-05-07T07:33:47;8.70;;;6.57;;
56720;SDS011;53183;47.412;18.884;2023-05-07T07:36:16;9.38;;;7.15;;
56720;SDS011;53183;47.412;18.884;2023-05-07T07:38:44;10.15;;;8.25;;
56720;SDS011;53183;47.412;18.884;2023-05-07T07:41:12;8.93;;;7.00;;
56720;SDS011;53183;47.412;18.884;2023-05-07T07:43:39;8.63;;;7.30;;
56720;SDS011;53183;47.412;18.884;2023-05-07T07:46:06;9.57;;;7.50;;
56720;SDS011;53183;47.412;18.884;2023-05-07T07:48:34;10.48;;;7.85;;
56720;SDS011;53183;47.412;18.884;2023-05-07T07:51:01;10.30;;;8.05;;
56720;SDS011;53183;47.412;18.884;2023-05-07T07:53:29;9.20;;;7.40;;
56720;SDS011;53183;47.412;18.884;2023-05-07T07:55:57;8.93;;;7.55;;
56720;SDS011;53183;47.412;18.884;2023-05-07T07:58:26;8.05;;;6.60;;
56720;SDS011;53183;47.412;18.884;2023-05-07T08:00:53;8.40;;;6.95;;
56720;SDS011;53183;47.412;18.884;2023-05-07T08:03:23;10.30;;;7.18;;
56720;SDS011;53183;47.412;18.884;2023-05-07T08:05:51;7.75;;;5.90;;
56720;SDS011;53183;47.412;18.884;2023-05-07T08:08:18;8.52;;;6.20;;
56720;SDS011;53183;47.412;18.884;2023-05-07T08:10:46;9.38;;;6.20;;
56720;SDS011;53183;47.412;18.884;2023-05-07T08:13:17;8.82;;;6.00;;
56720;SDS011;53183;47.412;18.884;2023-05-07T08:15:46;6.55;;;5.15;;
56720;SDS011;53183;47.412;18.884;2023-05-07T08:18:13;9.15;;;5.85;;
56720;SDS011;53183;47.412;18.884;2023-05-07T08:20:41;8.57;;;6.18;;
56720;SDS011;53183;47.412;18.884;2023-05-07T08:23:09;11.32;;;6.90;;
56720;SDS011;53183;47.412;18.884;2023-05-07T08:25:37;7.57;;;5.32;;
56720;SDS011;53183;47.412;18.884;2023-05-07T08:28:04;8.90;;;7.00;;
56720;SDS011;53183;47.412;18.884;2023-05-07T08:30:36;7.93;;;5.87;;
56720;SDS011;53183;47.412;18.884;2023-05-07T08:33:05;8.98;;;6.45;;
56720;SDS011;53183;47.412;18.884;2023-05-07T08:35:32;9.27;;;6.40;;
56720;SDS011;53183;47.412;18.884;2023-05-07T08:37:59;9.65;;;6.28;;
56720;SDS011;53183;47.412;18.884;2023-05-07T08:40:27;8.00;;;5.40;;
56720;SDS011;53183;47.412;18.884;2023-05-07T08:42:56;9.60;;;6.55;;
56720;SDS011;53183;47.412;18.884;2023-05-07T08:45:24;9.23;;;6.03;;
56720;SDS011;53183;47.412;18.884;2023-05-07T08:47:55;8.88;;;5.70;;
56720;SDS011;53183;47.412;18.884;2023-05-07T08:50:26;8.35;;;5.53;;
56720;SDS011;53183;47.412;18.884;2023-05-07T08:52:54;6.20;;;5.47;;
56720;SDS011;53183;47.412;18.884;2023-05-07T08:55:24;8.32;;;5.82;;
56720;SDS011;53183;47.412;18.884;2023-05-07T08:57:52;9.15;;;5.95;;
56720;SDS011;53183;47.412;18.884;2023-05-07T09:00:21;8.50;;;5.55;;
56720;SDS011;53183;47.412;18.884;2023-05-07T09:02:49;6.47;;;4.03;;
56720;SDS011;53183;47.412;18.884;2023-05-07T09:05:16;4.57;;;3.78;;
56720;SDS011;53183;47.412;18.884;2023-05-07T09:07:45;5.97;;;4.28;;
56720;SDS011;53183;47.412;18.884;2023-05-07T09:10:13;5.10;;;3.87;;
56720;SDS011;53183;47.412;18.884;2023-05-07T09:12:40;4.78;;;3.75;;
56720;SDS011;53183;47.412;18.884;2023-05-07T09:15:09;5.90;;;4.65;;
56720;SDS011;53183;47.412;18.884;2023-05-07T09:17:37;5.03;;;4.05;;
56720;SDS011;53183;47.412;18.884;2023-05-07T09:20:05;5.75;;;3.78;;
56720;SDS011;53183;47.412;18.884;2023-05-07T09:22:37;6.18;;;5.37;;
56720;SDS011;53183;47.412;18.884;2023-05-07T09:25:07;7.15;;;4.75;;
56720;SDS011;53183;47.412;18.884;2023-05-07T09:27:37;9.30;;;4.82;;
56720;SDS011;53183;47.412;18.884;2023-05-07T09:30:05;7.12;;;4.90;;
56720;SDS011;53183;47.412;18.884;2023-05-07T09:32:36;6.05;;;4.57;;
56720;SDS011;53183;47.412;18.884;2023-05-07T09:35:15;7.80;;;4.70;;
56720;SDS011;53183;47.412;18.884;2023-05-07T09:37:49;7.72;;;4.22;;
56720;SDS011;53183;47.412;18.884;2023-05-07T09:40:20;5.97;;;3.55;;
56720;SDS011;53183;47.412;18.884;2023-05-07T09:42:51;6.62;;;4.62;;
56720;SDS011;53183;47.412;18.884;2023-05-07T09:45:26;5.50;;;3.72;;
56720;SDS011;53183;47.412;18.884;2023-05-07T09:47:55;6.12;;;4.22;;
56720;SDS011;53183;47.412;18.884;2023-05-07T09:50:28;7.70;;;4.47;;
56720;SDS011;53183;47.412;18.884;2023-05-07T09:52:57;9.65;;;5.07;;
56720;SDS011;53183;47.412;18.884;2023-05-07T09:55:26;5.43;;;4.82;;
56720;SDS011;53183;47.412;18.884;2023-05-07T09:57:54;7.18;;;5.53;;
56720;SDS011;53183;47.412;18.884;2023-05-07T10:00:23;6.55;;;5.75;;
56720;SDS011;53183;47.412;18.884;2023-05-07T10:02:56;11.12;;;7.07;;
56720;SDS011;53183;47.412;18.884;2023-05-07T10:05:25;7.82;;;6.00;;
56720;SDS011;53183;47.412;18.884;2023-05-07T10:07:54;9.73;;;6.22;;
56720;SDS011;53183;47.412;18.884;2023-05-07T10:10:24;8.98;;;6.15;;
56720;SDS011;53183;47.412;18.884;2023-05-07T10:12:52;6.75;;;5.87;;
56720;SDS011;53183;47.412;18.884;2023-05-07T10:15:22;8.30;;;6.78;;
56720;SDS011;53183;47.412;18.884;2023-05-07T10:17:52;9.75;;;6.72;;
56720;SDS011;53183;47.412;18.884;2023-05-07T10:20:21;6.90;;;5.90;;
56720;SDS011;53183;47.412;18.884;2023-05-07T10:22:48;7.80;;;5.80;;
56720;SDS011;53183;47.412;18.884;2023-05-07T10:25:28;9.15;;;6.37;;
56720;SDS011;53183;47.412;18.884;2023-05-07T10:27:59;9.00;;;6.37;;
56720;SDS011;53183;47.412;18.884;2023-05-07T10:33:08;9.30;;;5.05;;
56720;SDS011;53183;47.412;18.884;2023-05-07T10:35:41;5.93;;;4.80;;
56720;SDS011;53183;47.412;18.884;2023-05-07T10:38:12;4.95;;;4.45;;
56720;SDS011;53183;47.412;18.884;2023-05-07T10:40:40;6.28;;;4.65;;
56720;SDS011;53183;47.412;18.884;2023-05-07T10:43:08;5.57;;;4.12;;
56720;SDS011;53183;47.412;18.884;2023-05-07T10:45:37;6.62;;;4.20;;
56720;SDS011;53183;47.412;18.884;2023-05-07T10:48:13;7.03;;;4.05;;
56720;SDS011;53183;47.412;18.884;2023-05-07T10:51:18;5.07;;;4.05;;
56720;SDS011;53183;47.412;18.884;2023-05-07T10:53:45;7.82;;;4.37;;
56720;SDS011;53183;47.412;18.884;2023-05-07T10:58:45;6.25;;;4.68;;
56720;SDS011;53183;47.412;18.884;2023-05-07T11:01:13;8.05;;;5.80;;
56720;SDS011;53183;47.412;18.884;2023-05-07T11:04:12;7.37;;;4.78;;
56720;SDS011;53183;47.412;18.884;2023-05-07T11:06:41;12.32;;;5.05;;
56720;SDS011;53183;47.412;18.884;2023-05-07T11:09:09;6.37;;;4.90;;
56720;SDS011;53183;47.412;18.884;2023-05-07T11:17:07;5.18;;;3.97;;
56720;SDS011;53183;47.412;18.884;2023-05-07T11:19:54;4.93;;;3.60;;
56720;SDS011;53183;47.412;18.884;2023-05-07T11:25:01;4.10;;;3.25;;
56720;SDS011;53183;47.412;18.884;2023-05-07T11:27:29;4.93;;;3.17;;
56720;SDS011;53183;47.412;18.884;2023-05-07T11:29:57;4.55;;;3.08;;
56720;SDS011;53183;47.412;18.884;2023-05-07T11:32:29;3.72;;;2.65;;
56720;SDS011;53183;47.412;18.884;2023-05-07T11:34:58;5.23;;;2.47;;
56720;SDS011;53183;47.412;18.884;2023-05-07T11:37:27;2.62;;;2.00;;
56720;SDS011;53183;47.412;18.884;2023-05-07T11:40:06;4.62;;;2.40;;
56720;SDS011;53183;47.412;18.884;2023-05-07T11:42:37;2.87;;;2.25;;
56720;SDS011;53183;47.412;18.884;2023-05-07T11:45:06;3.17;;;2.60;;
56720;SDS011;53183;47.412;18.884;2023-05-07T11:47:34;3.30;;;2.40;;
56720;SDS011;53183;47.412;18.884;2023-05-07T11:50:05;6.05;;;2.80;;
56720;SDS011;53183;47.412;18.884;2023-05-07T11:52:35;2.80;;;2.50;;
56720;SDS011;53183;47.412;18.884;2023-05-07T11:55:02;3.78;;;2.67;;
56720;SDS011;53183;47.412;18.884;2023-05-07T11:57:32;3.05;;;2.28;;
56720;SDS011;53183;47.412;18.884;2023-05-07T12:00:01;3.37;;;2.20;;
56720;SDS011;53183;47.412;18.884;2023-05-07T12:02:38;5.25;;;3.40;;
56720;SDS011;53183;47.412;18.884;2023-05-07T12:05:05;8.82;;;2.50;;
56720;SDS011;53183;47.412;18.884;2023-05-07T12:07:33;3.75;;;2.53;;
56720;SDS011;53183;47.412;18.884;2023-05-07T12:10:04;3.17;;;2.33;;
56720;SDS011;53183;47.412;18.884;2023-05-07T12:12:39;2.17;;;1.80;;
56720;SDS011;53183;47.412;18.884;2023-05-07T12:15:09;1.98;;;1.77;;
56720;SDS011;53183;47.412;18.884;2023-05-07T12:17:37;5.25;;;2.62;;
56720;SDS011;53183;47.412;18.884;2023-05-07T12:20:05;5.05;;;2.65;;
56720;SDS011;53183;47.412;18.884;2023-05-07T12:22:34;6.72;;;2.62;;
56720;SDS011;53183;47.412;18.884;2023-05-07T12:25:01;3.30;;;2.60;;
56720;SDS011;53183;47.412;18.884;2023-05-07T12:27:29;5.40;;;2.42;;
56720;SDS011;53183;47.412;18.884;2023-05-07T12:29:57;3.65;;;2.33;;
56720;SDS011;53183;47.412;18.884;2023-05-07T12:32:26;4.72;;;2.20;;
56720;SDS011;53183;47.412;18.884;2023-05-07T12:34:53;4.20;;;3.58;;
56720;SDS011;53183;47.412;18.884;2023-05-07T12:37:24;4.35;;;2.40;;
56720;SDS011;53183;47.412;18.884;2023-05-07T12:40:05;3.60;;;2.55;;
56720;SDS011;53183;47.412;18.884;2023-05-07T12:42:36;6.05;;;2.83;;
56720;SDS011;53183;47.412;18.884;2023-05-07T12:45:07;5.37;;;2.80;;
56720;SDS011;53183;47.412;18.884;2023-05-07T12:47:44;3.33;;;2.65;;
56720;SDS011;53183;47.412;18.884;2023-05-07T12:50:13;3.10;;;2.25;;
56720;SDS011;53183;47.412;18.884;2023-05-07T12:52:41;3.92;;;2.80;;
56720;SDS011;53183;47.412;18.884;2023-05-07T12:55:12;4.75;;;2.95;;
56720;SDS011;53183;47.412;18.884;2023-05-07T12:57:48;6.87;;;2.65;;
56720;SDS011;53183;47.412;18.884;2023-05-07T13:00:17;3.35;;;2.20;;
56720;SDS011;53183;47.412;18.884;2023-05-07T13:02:45;3.20;;;2.30;;
56720;SDS011;53183;47.412;18.884;2023-05-07T13:05:12;4.28;;;1.92;;
56720;SDS011;53183;47.412;18.884;2023-05-07T13:07:40;3.40;;;2.10;;
56720;SDS011;53183;47.412;18.884;2023-05-07T13:10:09;7.87;;;2.70;;
56720;SDS011;53183;47.412;18.884;2023-05-07T13:12:36;7.60;;;2.53;;
56720;SDS011;53183;47.412;18.884;2023-05-07T13:15:03;2.87;;;2.12;;
56720;SDS011;53183;47.412;18.884;2023-05-07T13:17:31;2.90;;;2.33;;
56720;SDS011;53183;47.412;18.884;2023-05-07T13:19:58;7.30;;;2.67;;
56720;SDS011;53183;47.412;18.884;2023-05-07T13:22:25;4.70;;;2.60;;
56720;SDS011;53183;47.412;18.884;2023-05-07T13:24:53;4.45;;;2.45;;
56720;SDS011;53183;47.412;18.884;2023-05-07T13:27:20;4.50;;;2.08;;
56720;SDS011;53183;47.412;18.884;2023-05-07T13:29:47;2.75;;;2.12;;
56720;SDS011;53183;47.412;18.884;2023-05-07T13:32:15;3.50;;;2.20;;
56720;SDS011;53183;47.412;18.884;2023-05-07T13:34:42;2.60;;;2.08;;
56720;SDS011;53183;47.412;18.884;2023-05-07T13:37:09;3.67;;;2.12;;
56720;SDS011;53183;47.412;18.884;2023-05-07T13:39:38;3.65;;;2.10;;
56720;SDS011;53183;47.412;18.884;2023-05-07T13:42:05;2.83;;;2.05;;
56720;SDS011;53183;47.412;18.884;2023-05-07T13:44:32;3.47;;;2.37;;
56720;SDS011;53183;47.412;18.884;2023-05-07T13:47:00;5.55;;;2.75;;
56720;SDS011;53183;47.412;18.884;2023-05-07T13:49:27;3.65;;;2.65;;
56720;SDS011;53183;47.412;18.884;2023-05-07T13:51:54;4.57;;;2.53;;
56720;SDS011;53183;47.412;18.884;2023-05-07T13:54:22;4.40;;;2.33;;
56720;SDS011;53183;47.412;18.884;2023-05-07T13:56:50;3.10;;;2.45;;
56720;SDS011;53183;47.412;18.884;2023-05-07T13:59:18;3.10;;;2.47;;
56720;SDS011;53183;47.412;18.884;2023-05-07T14:01:45;2.87;;;2.25;;
56720;SDS011;53183;47.412;18.884;2023-05-07T14:04:13;3.60;;;2.87;;
56720;SDS011;53183;47.412;18.884;2023-05-07T14:06:40;5.37;;;2.80;;
56720;SDS011;53183;47.412;18.884;2023-05-07T14:09:07;4.37;;;3.47;;
56720;SDS011;53183;47.412;18.884;2023-05-07T14:11:34;3.53;;;3.12;;
56720;SDS011;53183;47.412;18.884;2023-05-07T14:14:02;5.10;;;2.47;;
56720;SDS011;53183;47.412;18.884;2023-05-07T14:16:29;7.07;;;3.12;;
56720;SDS011;53183;47.412;18.884;2023-05-07T14:18:57;3.55;;;2.80;;
56720;SDS011;53183;47.412;18.884;2023-05-07T14:21:24;4.03;;;2.72;;
56720;SDS011;53183;47.412;18.884;2023-05-07T14:23:52;4.60;;;2.60;;
56720;SDS011;53183;47.412;18.884;2023-05-07T14:26:19;3.67;;;2.67;;
56720;SDS011;53183;47.412;18.884;2023-05-07T14:28:47;5.72;;;2.95;;
56720;SDS011;53183;47.412;18.884;2023-05-07T14:31:14;4.25;;;2.83;;
56720;SDS011;53183;47.412;18.884;2023-05-07T14:33:42;4.68;;;2.67;;
56720;SDS011;53183;47.412;18.884;2023-05-07T14:36:09;5.60;;;2.70;;
56720;SDS011;53183;47.412;18.884;2023-05-07T14:38:36;7.37;;;3.35;;
56720;SDS011;53183;47.412;18.884;2023-05-07T14:41:03;3.72;;;2.95;;
56720;SDS011;53183;47.412;18.884;2023-05-07T14:43:30;3.58;;;2.90;;
56720;SDS011;53183;47.412;18.884;2023-05-07T14:45:58;4.07;;;3.10;;
56720;SDS011;53183;47.412;18.884;2023-05-07T14:48:25;3.67;;;3.33;;
56720;SDS011;53183;47.412;18.884;2023-05-07T14:50:52;8.05;;;4.25;;
56720;SDS011;53183;47.412;18.884;2023-05-07T14:53:19;7.40;;;4.15;;
56720;SDS011;53183;47.412;18.884;2023-05-07T14:55:47;5.10;;;3.80;;